createdAt,value
2019-02-11T00:02:11.027Z,3.81
2019-02-11T00:04:36.868Z,3.79
2019-02-11T00:07:05.461Z,3.77
2019-02-11T00:09:31.311Z,3.80
2019-02-11T00:11:57.157Z,3.89
2019-02-11T00:14:22.983Z,3.90
2019-02-11T00:16:48.821Z,3.87
2019-02-11T00:19:14.674Z,3.88
2019-02-11T00:21:40.595Z,3.92
2019-02-11T00:24:06.408Z,3.88
2019-02-11T00:26:32.269Z,3.89
2019-02-11T00:28:58.079Z,3.90
2019-02-11T00:31:24.023Z,3.93
2019-02-11T00:33:50.147Z,3.89
2019-02-11T00:36:17.932Z,3.97
2019-02-11T00:38:43.782Z,3.93
2019-02-11T00:41:09.621Z,3.95
2019-02-11T00:43:35.464Z,3.98
2019-02-11T00:46:01.302Z,3.98
2019-02-11T00:48:27.119Z,4.03
2019-02-11T00:50:52.976Z,4.02
2019-02-11T00:53:18.791Z,4.02
2019-02-11T00:55:44.649Z,3.93
2019-02-11T00:58:10.504Z,3.97
2019-02-11T01:00:36.332Z,3.95
2019-02-11T01:03:02.178Z,3.93
2019-02-11T01:05:28.013Z,3.90
2019-02-11T01:07:53.853Z,3.86
2019-02-11T01:10:19.776Z,3.86
2019-02-11T01:12:45.616Z,3.86
2019-02-11T01:15:11.561Z,3.78
2019-02-11T01:17:37.416Z,3.77
2019-02-11T01:20:06.440Z,3.71
2019-02-11T01:22:32.392Z,3.81
2019-02-11T01:24:58.219Z,3.82
2019-02-11T01:27:24.061Z,3.81
2019-02-11T01:29:49.885Z,3.75
2019-02-11T01:32:15.732Z,3.84
2019-02-11T01:34:41.553Z,3.82
2019-02-11T01:37:07.499Z,3.83
2019-02-11T01:39:33.322Z,3.86
2019-02-11T01:41:59.132Z,3.86
2019-02-11T01:44:24.987Z,3.84
2019-02-11T01:46:50.913Z,3.92
2019-02-11T01:49:16.751Z,3.93
2019-02-11T01:51:42.564Z,3.93
2019-02-11T01:54:08.407Z,3.90
2019-02-11T01:56:34.241Z,3.94
2019-02-11T01:59:00.110Z,3.94
2019-02-11T02:01:25.929Z,3.93
2019-02-11T02:03:51.775Z,4.02
2019-02-11T02:06:17.593Z,4.00
2019-02-11T02:08:43.443Z,4.06
2019-02-11T02:11:09.265Z,4.08
2019-02-11T02:13:35.104Z,4.05
2019-02-11T02:16:00.951Z,4.07
2019-02-11T02:18:26.745Z,4.14
2019-02-11T02:20:52.588Z,4.10
2019-02-11T02:23:18.400Z,4.12
2019-02-11T02:25:44.244Z,4.11
2019-02-11T02:28:10.075Z,4.06
2019-02-11T02:30:35.928Z,4.12
2019-02-11T02:33:01.731Z,4.14
2019-02-11T02:35:27.579Z,4.08
2019-02-11T02:37:53.409Z,4.10
2019-02-11T02:40:19.246Z,4.17
2019-02-11T02:42:45.063Z,4.11
2019-02-11T02:45:11.032Z,4.12
2019-02-11T02:47:36.882Z,4.09
2019-02-11T02:50:05.429Z,4.12
2019-02-11T02:52:31.269Z,4.16
2019-02-11T02:54:57.045Z,4.15
2019-02-11T02:57:22.878Z,4.19
2019-02-11T02:59:48.738Z,4.18
2019-02-11T03:02:15.198Z,4.13
2019-02-11T03:04:41.013Z,4.10
2019-02-11T03:07:06.845Z,4.11
2019-02-11T03:09:32.649Z,4.11
2019-02-11T03:11:58.489Z,4.10
2019-02-11T03:14:24.298Z,4.19
2019-02-11T03:16:50.139Z,4.18
2019-02-11T03:19:15.953Z,4.15
2019-02-11T03:21:41.803Z,4.13
2019-02-11T03:24:07.612Z,4.16
2019-02-11T03:26:33.464Z,4.18
2019-02-11T03:28:59.276Z,4.29
2019-02-11T03:31:25.116Z,4.33
2019-02-11T03:33:50.940Z,4.36
2019-02-11T03:36:16.758Z,4.37
2019-02-11T03:38:42.600Z,4.43
2019-02-11T03:41:08.445Z,4.46
2019-02-11T03:43:34.286Z,4.40
2019-02-11T03:46:00.118Z,4.38
2019-02-11T03:48:25.952Z,4.42
2019-02-11T03:50:51.879Z,4.44
2019-02-11T03:53:17.828Z,4.47
2019-02-11T03:55:43.753Z,4.50
2019-02-11T03:58:09.725Z,4.45
2019-02-11T04:00:36.156Z,4.45
2019-02-11T04:03:01.992Z,4.41
2019-02-11T04:05:27.900Z,4.42
2019-02-11T04:07:53.751Z,4.46
2019-02-11T04:10:19.559Z,4.48
2019-02-11T04:12:45.377Z,4.48
2019-02-11T04:15:11.319Z,4.49
2019-02-11T04:17:37.132Z,4.52
2019-02-11T04:20:05.169Z,4.59
2019-02-11T04:22:30.982Z,4.56
2019-02-11T04:24:56.827Z,4.59
2019-02-11T04:27:22.752Z,4.55
2019-02-11T04:29:48.589Z,4.62
2019-02-11T04:32:14.400Z,4.60
2019-02-11T04:34:40.255Z,4.64
2019-02-11T04:37:06.071Z,4.66
2019-02-11T04:39:31.905Z,4.70
2019-02-11T04:41:57.742Z,4.67
2019-02-11T04:44:23.592Z,4.62
2019-02-11T04:46:49.398Z,4.67
2019-02-11T04:49:15.251Z,4.64
2019-02-11T04:51:41.065Z,4.63
2019-02-11T04:54:06.886Z,4.64
2019-02-11T04:56:32.711Z,4.57
2019-02-11T04:58:58.591Z,4.58
2019-02-11T05:01:24.641Z,4.56
2019-02-11T05:03:50.464Z,4.57
2019-02-11T05:06:16.308Z,4.64
2019-02-11T05:08:42.119Z,4.67
2019-02-11T05:11:07.968Z,4.63
2019-02-11T05:13:33.787Z,4.64
2019-02-11T05:15:59.735Z,4.51
2019-02-11T05:18:25.547Z,4.57
2019-02-11T05:20:51.396Z,4.66
2019-02-11T05:23:17.209Z,4.54
2019-02-11T05:25:43.044Z,4.52
2019-02-11T05:28:08.859Z,4.39
2019-02-11T05:30:34.680Z,4.31
2019-02-11T05:33:00.667Z,4.38
2019-02-11T05:35:26.464Z,4.30
2019-02-11T05:37:52.312Z,4.21
2019-02-11T05:40:18.144Z,4.17
2019-02-11T05:42:43.992Z,4.24
2019-02-11T05:45:09.930Z,4.26
2019-02-11T05:47:35.777Z,4.30
2019-02-11T05:50:02.899Z,4.35
2019-02-11T05:52:28.816Z,4.46
2019-02-11T05:54:54.638Z,4.41
2019-02-11T05:57:20.499Z,4.51
2019-02-11T05:59:46.363Z,4.51
2019-02-11T06:02:13.831Z,4.42
2019-02-11T06:04:39.664Z,4.44
2019-02-11T06:07:05.481Z,4.45
2019-02-11T06:09:31.333Z,4.49
2019-02-11T06:11:57.140Z,4.52
2019-02-11T06:14:22.983Z,4.55
2019-02-11T06:16:48.798Z,4.57
2019-02-11T06:19:14.647Z,4.49
2019-02-11T06:21:40.475Z,4.51
2019-02-11T06:24:06.428Z,4.51
2019-02-11T06:26:32.245Z,4.53
2019-02-11T06:28:58.136Z,4.43
2019-02-11T06:31:23.939Z,4.48
2019-02-11T06:33:49.831Z,4.42
2019-02-11T06:36:15.658Z,4.47
2019-02-11T06:38:41.503Z,4.40
2019-02-11T06:41:07.319Z,4.41
2019-02-11T06:43:33.164Z,4.47
2019-02-11T06:45:59.093Z,4.41
2019-02-11T06:48:24.990Z,4.45
2019-02-11T06:50:50.800Z,4.30
2019-02-11T06:53:16.618Z,4.38
2019-02-11T06:55:42.455Z,4.33
2019-02-11T06:58:08.318Z,4.31
2019-02-11T07:00:34.190Z,4.29
2019-02-11T07:03:00.000Z,4.18
2019-02-11T07:05:25.844Z,4.32
2019-02-11T07:07:51.660Z,4.34
2019-02-11T07:10:17.537Z,4.37
2019-02-11T07:12:43.342Z,4.38
2019-02-11T07:15:11.318Z,4.44
2019-02-11T07:17:37.103Z,4.45
2019-02-11T07:20:06.546Z,4.48
2019-02-11T07:22:32.363Z,4.42
2019-02-11T07:24:58.210Z,4.47
2019-02-11T07:27:24.024Z,4.58
2019-02-11T07:29:50.337Z,4.56
2019-02-11T07:32:16.167Z,4.69
2019-02-11T07:34:42.037Z,4.70
2019-02-11T07:37:07.878Z,4.69
2019-02-11T07:39:33.693Z,4.70
2019-02-11T07:42:07.236Z,4.78
2019-02-11T07:44:33.065Z,4.80
2019-02-11T07:46:58.929Z,4.83
2019-02-11T07:49:24.758Z,4.81
2019-02-11T07:51:50.614Z,4.80
2019-02-11T07:54:16.455Z,4.89
2019-02-11T07:56:42.303Z,4.96
2019-02-11T07:59:08.172Z,5.00
2019-02-11T08:01:34.048Z,5.05
2019-02-11T08:03:59.998Z,5.07
2019-02-11T08:06:25.873Z,5.04
2019-02-11T08:08:51.936Z,4.97
2019-02-11T08:11:18.101Z,4.51
2019-02-11T08:13:43.929Z,4.51
2019-02-11T08:16:09.792Z,4.45
2019-02-11T08:18:35.630Z,4.72
2019-02-11T08:21:01.945Z,4.91
2019-02-11T08:23:27.887Z,5.16
2019-02-11T08:25:53.724Z,5.89
2019-02-11T08:28:19.910Z,5.92
2019-02-11T08:30:46.047Z,5.80
2019-02-11T08:33:12.009Z,5.95
2019-02-11T08:35:37.846Z,5.81
2019-02-11T08:38:03.684Z,5.63
2019-02-11T08:40:29.509Z,5.53
2019-02-11T08:42:55.376Z,5.51
2019-02-11T08:45:21.199Z,5.62
2019-02-11T08:47:47.056Z,5.54
2019-02-11T08:50:13.243Z,5.58
2019-02-11T08:52:39.096Z,5.54
2019-02-11T08:55:06.709Z,5.45
2019-02-11T08:57:32.552Z,5.69
2019-02-11T08:59:58.450Z,5.69
2019-02-11T09:02:24.604Z,5.78
2019-02-11T09:04:50.423Z,5.79
2019-02-11T09:07:16.242Z,5.67
2019-02-11T09:09:42.128Z,5.75
2019-02-11T09:12:07.953Z,5.99
2019-02-11T09:14:33.814Z,6.48
2019-02-11T09:16:59.643Z,6.72
2019-02-11T09:19:25.475Z,6.67
2019-02-11T09:21:51.311Z,6.94
2019-02-11T09:24:17.205Z,6.89
2019-02-11T09:26:43.214Z,6.67
2019-02-11T09:29:09.057Z,6.55
2019-02-11T09:31:34.910Z,6.26
2019-02-11T09:34:00.829Z,6.26
2019-02-11T09:36:26.677Z,6.20
2019-02-11T09:38:52.513Z,6.22
2019-02-11T09:41:18.468Z,6.69
2019-02-11T09:43:44.404Z,6.86
2019-02-11T09:46:10.264Z,6.90
2019-02-11T09:48:36.119Z,6.99
2019-02-11T09:51:03.174Z,7.43
2019-02-11T09:53:29.135Z,7.35
2019-02-11T09:55:54.971Z,7.79
2019-02-11T09:58:20.789Z,7.99
2019-02-11T10:00:46.872Z,8.11
2019-02-11T10:03:12.815Z,8.07
2019-02-11T10:05:38.665Z,8.40
2019-02-11T10:08:04.483Z,8.50
2019-02-11T10:10:30.428Z,7.82
2019-02-11T10:12:56.366Z,7.62
2019-02-11T10:15:22.361Z,7.94
2019-02-11T10:17:48.196Z,8.32
2019-02-11T10:20:14.724Z,7.68
2019-02-11T10:22:41.013Z,7.42
2019-02-11T10:25:13.132Z,7.20
2019-02-11T10:27:38.989Z,7.20
2019-02-11T10:30:08.629Z,7.39
2019-02-11T10:32:34.497Z,8.23
2019-02-11T10:35:00.363Z,8.94
2019-02-11T10:37:26.223Z,8.88
2019-02-11T10:39:52.032Z,8.75
2019-02-11T10:42:17.895Z,8.46
2019-02-11T10:44:43.830Z,8.85
2019-02-11T10:47:09.975Z,9.19
2019-02-11T10:49:35.833Z,9.40
2019-02-11T10:52:01.725Z,9.30
2019-02-11T10:54:27.754Z,9.33
2019-02-11T10:56:53.615Z,9.47
2019-02-11T10:59:19.484Z,10.58
2019-02-11T11:01:45.344Z,11.10
2019-02-11T11:04:11.384Z,10.61
2019-02-11T11:06:37.211Z,10.37
2019-02-11T11:09:06.382Z,10.23
2019-02-11T11:11:32.206Z,9.87
2019-02-11T11:13:58.068Z,9.38
2019-02-11T11:16:29.382Z,9.19
2019-02-11T11:18:51.671Z,9.02
2019-02-11T11:21:18.412Z,9.01
2019-02-11T11:23:44.259Z,8.85
2019-02-11T11:26:10.101Z,8.74
2019-02-11T11:28:37.449Z,8.59
2019-02-11T11:31:03.412Z,8.53
2019-02-11T11:33:29.240Z,8.41
2019-02-11T11:35:55.079Z,8.24
2019-02-11T11:38:21.455Z,8.23
2019-02-11T11:40:47.376Z,8.45
2019-02-11T11:43:13.344Z,8.65
2019-02-11T11:45:39.179Z,8.53
2019-02-11T11:48:04.991Z,8.55
2019-02-11T11:50:30.854Z,8.58
2019-02-11T11:52:56.703Z,8.44
2019-02-11T11:55:22.977Z,8.34
2019-02-11T11:57:48.912Z,8.32
2019-02-11T12:00:19.190Z,8.31
2019-02-11T12:03:00.370Z,8.02
2019-02-11T12:05:14.474Z,7.79
2019-02-11T12:07:40.414Z,7.71
2019-02-11T12:10:07.922Z,7.62
2019-02-11T12:12:33.739Z,7.51
2019-02-11T12:14:59.606Z,7.37
2019-02-11T12:17:25.477Z,7.27
2019-02-11T12:19:51.332Z,7.19
2019-02-11T12:22:17.149Z,7.18
2019-02-11T12:24:43.292Z,7.05
2019-02-11T12:27:09.207Z,7.01
2019-02-11T12:29:35.243Z,7.01
2019-02-11T12:32:01.193Z,6.98
2019-02-11T12:34:27.006Z,7.06
2019-02-11T12:36:52.848Z,7.08
2019-02-11T12:39:18.677Z,7.05
2019-02-11T12:41:44.539Z,7.00
2019-02-11T12:44:10.354Z,6.96
2019-02-11T12:46:36.225Z,6.93
2019-02-11T12:49:02.051Z,6.86
2019-02-11T12:51:27.936Z,6.95
2019-02-11T12:53:53.811Z,7.03
2019-02-11T12:56:19.629Z,7.35
2019-02-11T12:58:45.496Z,7.64
2019-02-11T13:01:11.478Z,7.68
2019-02-11T13:03:38.070Z,7.85
2019-02-11T13:06:04.482Z,7.99
2019-02-11T13:08:30.337Z,7.64
2019-02-11T13:10:56.191Z,7.50
2019-02-11T13:13:22.048Z,7.64
2019-02-11T13:16:01.575Z,8.13
2019-02-11T13:18:16.057Z,8.78
2019-02-11T13:20:42.036Z,9.45
2019-02-11T13:23:07.979Z,9.26
2019-02-11T13:25:33.828Z,9.18
2019-02-11T13:27:59.735Z,9.07
2019-02-11T13:30:25.681Z,8.98
2019-02-11T13:32:51.635Z,8.97
2019-02-11T13:35:17.605Z,8.71
2019-02-11T13:37:43.903Z,8.46
2019-02-11T13:40:10.231Z,8.43
2019-02-11T13:42:36.217Z,8.02
2019-02-11T13:45:05.854Z,8.04
2019-02-11T13:47:31.811Z,7.95
2019-02-11T13:49:57.710Z,7.73
2019-02-11T13:52:23.640Z,7.93
2019-02-11T13:54:49.617Z,7.88
2019-02-11T13:57:15.544Z,8.20
2019-02-11T13:59:41.435Z,8.25
2019-02-11T14:02:07.656Z,8.40
2019-02-11T14:04:33.736Z,8.50
2019-02-11T14:06:59.708Z,8.58
2019-02-11T14:09:27.710Z,8.16
2019-02-11T14:11:53.553Z,7.84
2019-02-11T14:14:23.244Z,7.50
2019-02-11T14:16:49.086Z,7.71
2019-02-11T14:19:14.950Z,7.89
2019-02-11T14:21:40.785Z,7.95
2019-02-11T14:24:06.700Z,7.86
2019-02-11T14:26:32.570Z,8.20
2019-02-11T14:28:58.526Z,8.65
2019-02-11T14:31:24.367Z,9.42
2019-02-11T14:33:50.333Z,10.18
2019-02-11T14:36:16.289Z,11.37
2019-02-11T14:38:42.273Z,13.95
2019-02-11T14:41:08.165Z,12.79
2019-02-11T14:43:33.983Z,11.29
2019-02-11T14:45:59.955Z,10.35
2019-02-11T14:48:28.638Z,10.47
2019-02-11T14:50:55.481Z,16.49
2019-02-11T14:53:21.332Z,22.19
2019-02-11T14:55:47.618Z,22.82
2019-02-11T14:58:13.459Z,25.59
2019-02-11T15:00:39.332Z,20.37
2019-02-11T15:03:05.160Z,17.42
2019-02-11T15:05:30.997Z,15.90
2019-02-11T15:07:56.875Z,14.23
2019-02-11T15:10:22.721Z,13.14
2019-02-11T15:12:48.650Z,12.51
2019-02-11T15:15:14.581Z,11.38
2019-02-11T15:17:43.069Z,13.32
2019-02-11T15:20:11.197Z,16.63
2019-02-11T15:22:37.065Z,19.49
2019-02-11T15:25:06.315Z,17.94
2019-02-11T15:27:32.252Z,15.04
2019-02-11T15:29:58.098Z,13.33
2019-02-11T15:32:23.976Z,12.08
2019-02-11T15:34:49.812Z,10.85
2019-02-11T15:37:15.684Z,10.31
2019-02-11T15:39:41.540Z,9.52
2019-02-11T15:42:07.534Z,9.39
2019-02-11T15:44:33.529Z,9.03
2019-02-11T15:46:59.376Z,8.80
2019-02-11T15:49:25.229Z,8.55
2019-02-11T15:51:51.124Z,8.49
2019-02-11T15:54:17.021Z,8.50
2019-02-11T15:56:42.868Z,8.36
2019-02-11T15:59:09.290Z,8.12
2019-02-11T16:01:35.281Z,8.05
2019-02-11T16:04:01.172Z,7.94
2019-02-11T16:06:27.062Z,7.66
2019-02-11T16:08:52.949Z,7.60
2019-02-11T16:11:18.804Z,7.87
2019-02-11T16:13:44.803Z,7.73
2019-02-11T16:16:10.801Z,7.47
2019-02-11T16:18:36.642Z,7.07
2019-02-11T16:21:02.929Z,6.74
2019-02-11T16:23:28.797Z,6.52
2019-02-11T16:25:55.044Z,6.32
2019-02-11T16:28:21.001Z,6.12
2019-02-11T16:30:46.961Z,5.95
2019-02-11T16:33:12.791Z,5.76
2019-02-11T16:35:38.755Z,5.65
2019-02-11T16:38:06.496Z,5.56
2019-02-11T16:40:32.834Z,5.55
2019-02-11T16:42:58.667Z,5.79
2019-02-11T16:45:24.645Z,5.70
2019-02-11T16:47:50.496Z,5.60
2019-02-11T16:50:16.437Z,5.73
2019-02-11T16:52:42.336Z,5.66
2019-02-11T16:55:09.502Z,5.66
2019-02-11T16:57:35.404Z,5.60
2019-02-11T17:00:01.796Z,5.78
2019-02-11T17:02:27.760Z,5.82
2019-02-11T17:04:53.698Z,5.82
2019-02-11T17:07:19.546Z,5.66
2019-02-11T17:09:45.383Z,5.56
2019-02-11T17:12:11.618Z,5.46
2019-02-11T17:14:37.577Z,5.41
2019-02-11T17:17:03.577Z,5.41
2019-02-11T17:19:29.418Z,5.34
2019-02-11T17:21:55.424Z,5.25
2019-02-11T17:24:21.357Z,5.30
2019-02-11T17:26:48.202Z,5.31
2019-02-11T17:29:14.090Z,5.42
2019-02-11T17:31:40.074Z,5.60
2019-02-11T17:34:05.936Z,5.74
2019-02-11T17:36:31.825Z,5.79
2019-02-11T17:38:57.704Z,5.75
2019-02-11T17:41:23.649Z,5.64
2019-02-11T17:43:49.653Z,5.46
2019-02-11T17:46:15.623Z,5.32
2019-02-11T17:48:41.436Z,5.22
2019-02-11T17:51:07.381Z,5.19
2019-02-11T17:53:33.406Z,5.13
2019-02-11T17:55:59.289Z,5.18
2019-02-11T17:58:25.259Z,5.25
2019-02-11T18:00:53.156Z,5.31
2019-02-11T18:03:19.031Z,5.42
2019-02-11T18:05:45.001Z,5.51
2019-02-11T18:08:11.101Z,5.64
2019-02-11T18:10:37.057Z,5.69
2019-02-11T18:13:03.072Z,5.68
2019-02-11T18:15:29.057Z,5.67
2019-02-11T18:17:55.122Z,5.63
2019-02-11T18:20:21.124Z,5.52
2019-02-11T18:22:47.043Z,5.25
2019-02-11T18:25:13.016Z,5.06
2019-02-11T18:27:38.951Z,4.89
2019-02-11T18:30:09.124Z,4.66
2019-02-11T18:32:35.187Z,4.51
2019-02-11T18:35:01.679Z,4.33
2019-02-11T18:37:27.545Z,4.33
2019-02-11T18:39:53.504Z,4.27
2019-02-11T18:42:19.364Z,4.23
2019-02-11T18:44:45.542Z,4.16
2019-02-11T18:47:11.392Z,4.09
2019-02-11T18:49:37.346Z,4.09
2019-02-11T18:52:03.324Z,4.09
2019-02-11T18:54:29.230Z,4.00
2019-02-11T18:56:55.092Z,3.89
2019-02-11T18:59:24.739Z,3.87
2019-02-11T19:01:49.283Z,3.82
2019-02-11T19:04:15.763Z,3.79
2019-02-11T19:06:41.849Z,3.87
2019-02-11T19:09:09.736Z,3.85
2019-02-11T19:11:35.635Z,3.88
2019-02-11T19:14:01.585Z,3.85
2019-02-11T19:16:27.736Z,3.83
2019-02-11T19:18:53.785Z,3.75
2019-02-11T19:21:19.768Z,3.67
2019-02-11T19:23:45.602Z,3.54
2019-02-11T19:26:11.593Z,3.42
2019-02-11T19:28:37.453Z,3.31
2019-02-11T19:31:04.140Z,3.21
2019-02-11T19:33:29.992Z,3.12
2019-02-11T19:35:56.006Z,2.98
2019-02-11T19:38:21.880Z,2.90
2019-02-11T19:40:47.714Z,2.81
2019-02-11T19:43:14.075Z,2.72
2019-02-11T19:45:40.069Z,2.62
2019-02-11T19:48:06.020Z,2.53
2019-02-11T19:50:31.853Z,2.48
2019-02-11T19:52:57.883Z,2.39
2019-02-11T19:55:23.848Z,2.33
2019-02-11T19:57:49.745Z,2.27
2019-02-11T20:00:20.980Z,2.20
2019-02-11T20:02:47.882Z,2.14
2019-02-11T20:05:13.963Z,2.10
2019-02-11T20:07:40.040Z,2.03
2019-02-11T20:10:09.721Z,1.98
2019-02-11T20:12:35.732Z,1.93
2019-02-11T20:15:03.213Z,1.86
2019-02-11T20:17:29.257Z,1.79
2019-02-11T20:20:00.356Z,1.73
2019-02-11T20:22:23.086Z,1.67
2019-02-11T20:24:49.182Z,1.60
2019-02-11T20:27:15.052Z,1.57
2019-02-11T20:29:41.040Z,1.52
2019-02-11T20:32:06.868Z,1.48
2019-02-11T20:34:32.877Z,1.41
2019-02-11T20:36:59.216Z,1.35
2019-02-11T20:39:25.214Z,1.30
2019-02-11T20:41:51.163Z,1.26
2019-02-11T20:44:17.023Z,1.24
2019-02-11T20:46:42.986Z,1.19
2019-02-11T20:49:09.052Z,1.20
2019-02-11T20:51:34.998Z,1.29
2019-02-11T20:54:01.099Z,1.46
2019-02-11T20:56:27.494Z,1.60
2019-02-11T20:58:55.980Z,1.77
2019-02-11T21:01:23.834Z,1.94
2019-02-11T21:03:49.801Z,2.09
2019-02-11T21:06:15.751Z,2.28
2019-02-11T21:08:41.602Z,2.32
2019-02-11T21:11:07.489Z,2.23
2019-02-11T21:13:33.546Z,2.09
2019-02-11T21:15:59.524Z,1.96
2019-02-11T21:18:25.452Z,1.77
2019-02-11T21:20:51.402Z,1.62
2019-02-11T21:23:17.360Z,1.48
2019-02-11T21:25:43.553Z,1.38
2019-02-11T21:28:09.405Z,1.30
2019-02-11T21:30:35.647Z,1.24
2019-02-11T21:33:01.519Z,1.17
2019-02-11T21:35:27.404Z,1.15
2019-02-11T21:37:53.370Z,1.15
2019-02-11T21:40:22.526Z,1.11
2019-02-11T21:42:48.386Z,1.06
2019-02-11T21:45:14.572Z,0.96
2019-02-11T21:47:40.505Z,0.94
2019-02-11T21:50:15.104Z,0.85
2019-02-11T21:52:40.951Z,0.78
2019-02-11T21:55:12.784Z,0.74
2019-02-11T21:57:38.821Z,0.69
2019-02-11T22:00:14.234Z,0.65
2019-02-11T22:02:40.095Z,0.62
2019-02-11T22:05:07.050Z,0.59
2019-02-11T22:07:32.863Z,0.59
2019-02-11T22:09:58.716Z,0.72
2019-02-11T22:12:24.552Z,0.85
2019-02-11T22:14:50.395Z,0.96
2019-02-11T22:17:16.713Z,1.02
2019-02-11T22:19:42.538Z,1.04
2019-02-11T22:22:08.402Z,1.10
2019-02-11T22:24:36.325Z,1.13
2019-02-11T22:27:02.164Z,1.12
2019-02-11T22:29:28.015Z,1.11
2019-02-11T22:31:53.866Z,1.13
2019-02-11T22:34:19.872Z,1.18
2019-02-11T22:36:45.721Z,1.17
2019-02-11T22:39:11.623Z,1.17
2019-02-11T22:41:37.465Z,1.21
2019-02-11T22:44:03.357Z,1.29
2019-02-11T22:46:29.245Z,1.38
2019-02-11T22:48:55.122Z,1.46
2019-02-11T22:51:21.063Z,1.45
2019-02-11T22:53:46.916Z,1.45
2019-02-11T22:56:12.740Z,1.43
2019-02-11T22:58:38.696Z,1.42
2019-02-11T23:01:06.243Z,1.38
2019-02-11T23:03:32.780Z,1.38
2019-02-11T23:06:01.484Z,1.42
2019-02-11T23:08:27.438Z,1.56
2019-02-11T23:10:53.261Z,1.66
2019-02-11T23:13:19.180Z,1.79
2019-02-11T23:15:45.158Z,1.88
2019-02-11T23:18:10.987Z,1.84
2019-02-11T23:20:36.867Z,1.84
2019-02-11T23:23:02.832Z,1.85
2019-02-11T23:25:28.772Z,1.85
2019-02-11T23:27:54.592Z,1.90
2019-02-11T23:30:20.509Z,1.96
2019-02-11T23:32:46.607Z,1.87
2019-02-11T23:35:12.453Z,1.77
2019-02-11T23:37:38.282Z,1.83
2019-02-11T23:40:06.952Z,1.80
2019-02-11T23:42:32.808Z,1.79
2019-02-11T23:44:58.658Z,1.83
2019-02-11T23:47:24.492Z,1.93
2019-02-11T23:49:50.910Z,2.05
2019-02-11T23:52:16.734Z,2.18
2019-02-11T23:54:42.573Z,2.25
2019-02-11T23:57:08.412Z,2.35
2019-02-11T23:59:34.250Z,2.41
